createdAt,value
2023-01-10T00:02:18.349Z,94307.34
2023-01-10T00:05:04.478Z,94306.72
2023-01-10T00:07:51.679Z,94306.72
2023-01-10T00:10:37.437Z,94286.28
2023-01-10T00:13:23.398Z,94302.63
2023-01-10T00:16:09.559Z,94296.94
2023-01-10T00:18:55.679Z,94285.06
2023-01-10T00:21:41.399Z,94285.88
2023-01-10T00:24:27.067Z,94295.72
2023-01-10T00:27:12.976Z,94285.56
2023-01-10T00:30:01.553Z,94279.25
2023-01-10T00:32:47.396Z,94281.47
2023-01-10T00:35:33.312Z,94282.91
2023-01-10T00:38:19.297Z,94310.09
2023-01-10T00:41:25.225Z,94274.03
2023-01-10T00:44:10.922Z,94271.81
2023-01-10T00:46:56.851Z,94265.22
2023-01-10T00:49:42.991Z,94270.91
2023-01-10T00:52:29.095Z,94256.97
2023-01-10T00:55:14.791Z,94276.91
2023-01-10T00:58:00.815Z,94272.94
2023-01-10T01:00:47.041Z,94281.97
2023-01-10T01:03:33.042Z,94286.56
2023-01-10T01:06:18.884Z,94259.69
2023-01-10T01:09:04.591Z,94275.66
2023-01-10T01:11:50.328Z,94278.03
2023-01-10T01:14:36.106Z,94262.69
2023-01-10T01:17:21.746Z,94277.41
2023-01-10T01:20:08.301Z,94290.50
2023-01-10T01:22:54.594Z,94288.91
2023-01-10T01:25:41.078Z,94291.75
2023-01-10T01:28:26.867Z,94291.28
2023-01-10T01:31:15.367Z,94275.63
2023-01-10T01:34:01.264Z,94282.44
2023-01-10T01:36:47.407Z,94282.78
2023-01-10T01:39:33.303Z,94293.97
2023-01-10T01:42:27.077Z,94279.59
2023-01-10T01:45:24.939Z,94281.34
2023-01-10T01:48:18.497Z,94267.59
2023-01-10T01:51:14.959Z,94273.28
2023-01-10T01:54:12.119Z,94252.88
2023-01-10T01:57:04.298Z,94271.69
2023-01-10T01:59:52.971Z,94272.78
2023-01-10T02:03:01.284Z,94283.06
2023-01-10T02:05:47.769Z,94289.56
2023-01-10T02:08:33.956Z,94284.34
2023-01-10T02:11:21.013Z,94298.09
2023-01-10T02:14:08.969Z,94319.59
2023-01-10T02:16:54.604Z,94330.16
2023-01-10T02:19:43.370Z,94330.16
2023-01-10T02:23:05.694Z,94334.59
2023-01-10T02:26:04.069Z,94328.44
2023-01-10T02:28:49.893Z,94321.47
2023-01-10T02:31:50.738Z,94323.38
2023-01-10T02:34:45.636Z,94326.06
2023-01-10T02:37:53.524Z,94323.38
2023-01-10T02:41:15.658Z,94332.53
2023-01-10T02:44:32.072Z,94332.22
2023-01-10T02:47:19.147Z,94324.66
2023-01-10T02:50:37.342Z,94322.28
2023-01-10T02:53:28.956Z,94327.03
2023-01-10T02:57:09.694Z,94327.81
2023-01-10T03:00:13.815Z,94333.97
2023-01-10T03:03:12.179Z,94335.53
2023-01-10T03:06:07.935Z,94327.97
2023-01-10T03:09:03.671Z,94336.34
2023-01-10T03:11:52.083Z,94341.41
2023-01-10T03:14:38.593Z,94342.50
2023-01-10T03:17:24.760Z,94353.72
2023-01-10T03:20:11.537Z,94355.00
2023-01-10T03:22:57.643Z,94354.22
2023-01-10T03:25:48.176Z,94352.00
2023-01-10T03:28:46.299Z,94345.66
2023-01-10T03:31:40.702Z,94348.84
2023-01-10T03:34:26.761Z,94340.28
2023-01-10T03:37:37.106Z,94314.03
2023-01-10T03:40:30.524Z,94281.19
2023-01-10T03:43:41.898Z,94258.56
2023-01-10T03:46:54.781Z,94211.47
2023-01-10T03:49:43.516Z,94200.88
2023-01-10T03:52:29.951Z,94279.28
2023-01-10T03:55:22.502Z,94337.78
2023-01-10T03:58:08.557Z,94323.84
2023-01-10T04:00:54.244Z,94336.19
2023-01-10T04:03:43.112Z,94333.03
2023-01-10T04:06:28.993Z,94317.06
2023-01-10T04:09:15.620Z,94324.50
2023-01-10T04:12:01.318Z,94315.00
2023-01-10T04:14:47.271Z,94317.06
2023-01-10T04:17:33.182Z,94317.56
2023-01-10T04:20:18.781Z,94319.13
2023-01-10T04:23:04.555Z,94321.81
2023-01-10T04:25:50.193Z,94310.59
2023-01-10T04:28:35.806Z,94317.56
2023-01-10T04:31:22.906Z,94330.50
2023-01-10T04:34:09.437Z,94337.47
2023-01-10T04:36:55.349Z,94337.47
2023-01-10T04:39:40.955Z,94342.19
2023-01-10T04:42:26.635Z,94348.03
2023-01-10T04:45:13.693Z,94360.69
2023-01-10T04:48:00.226Z,94371.44
2023-01-10T04:50:50.875Z,94358.97
2023-01-10T04:53:36.689Z,94362.13
2023-01-10T04:56:23.627Z,94353.59
2023-01-10T04:59:10.478Z,94354.69
2023-01-10T05:01:57.598Z,94351.03
2023-01-10T05:04:43.513Z,94355.78
2023-01-10T05:07:29.165Z,94361.31
2023-01-10T05:10:15.146Z,94371.91
2023-01-10T05:13:01.015Z,94376.19
2023-01-10T05:15:46.840Z,94360.06
2023-01-10T05:18:32.561Z,94356.75
2023-01-10T05:21:18.494Z,94360.22
2023-01-10T05:24:04.587Z,94362.28
2023-01-10T05:26:50.435Z,94362.28
2023-01-10T05:29:36.196Z,94367.81
2023-01-10T05:32:22.072Z,94354.88
2023-01-10T05:35:07.972Z,94361.81
2023-01-10T05:37:54.174Z,94356.44
2023-01-10T05:40:39.760Z,94357.56
2023-01-10T05:43:26.342Z,94363.41
2023-01-10T05:46:12.031Z,94365.63
2023-01-10T05:48:57.666Z,94358.03
2023-01-10T05:51:43.402Z,94364.03
2023-01-10T05:54:29.847Z,94369.88
2023-01-10T05:57:15.892Z,94371.00
2023-01-10T06:00:04.860Z,94361.34
2023-01-10T06:02:57.777Z,94362.44
2023-01-10T06:05:43.460Z,94351.69
2023-01-10T06:08:29.259Z,94362.94
2023-01-10T06:11:15.213Z,94372.56
2023-01-10T06:14:01.096Z,94359.13
2023-01-10T06:16:47.274Z,94363.41
2023-01-10T06:19:32.942Z,94382.22
2023-01-10T06:22:18.582Z,94386.47
2023-01-10T06:25:04.739Z,94389.63
2023-01-10T06:27:50.784Z,94392.81
2023-01-10T06:30:36.703Z,94398.66
2023-01-10T06:33:22.612Z,94412.09
2023-01-10T06:36:08.619Z,94405.16
2023-01-10T06:38:54.335Z,94399.78
2023-01-10T06:41:40.014Z,94394.41
2023-01-10T06:44:25.718Z,94402.94
2023-01-10T06:47:11.739Z,94396.47
2023-01-10T06:49:58.103Z,94405.63
2023-01-10T06:52:43.640Z,94403.88
2023-01-10T06:55:29.960Z,94394.09
2023-01-10T06:58:18.489Z,94392.34
2023-01-10T07:01:12.903Z,94407.22
2023-01-10T07:03:59.074Z,94406.59
2023-01-10T07:06:45.673Z,94402.50
2023-01-10T07:09:31.436Z,94406.41
2023-01-10T07:12:17.024Z,94417.97
2023-01-10T07:15:02.613Z,94399.47
2023-01-10T07:17:48.405Z,94397.25
2023-01-10T07:20:34.039Z,94397.25
2023-01-10T07:23:19.698Z,94388.69
2023-01-10T07:26:10.255Z,94395.53
2023-01-10T07:28:56.110Z,94398.53
2023-01-10T07:31:41.905Z,94385.69
2023-01-10T07:34:27.780Z,94374.47
2023-01-10T07:37:13.350Z,94393.16
2023-01-10T07:39:59.145Z,94404.53
2023-01-10T07:42:44.832Z,94419.88
2023-01-10T07:45:31.116Z,94420.66
2023-01-10T07:48:16.889Z,94426.53
2023-01-10T07:51:03.303Z,94429.69
2023-01-10T07:53:49.350Z,94432.06
2023-01-10T07:56:35.157Z,94430.19
2023-01-10T07:59:24.040Z,94433.31
2023-01-10T08:02:11.133Z,94436.50
2023-01-10T08:04:56.791Z,94411.81
2023-01-10T08:07:42.653Z,94409.13
2023-01-10T08:10:28.350Z,94407.88
2023-01-10T08:13:18.887Z,94415.59
2023-01-10T08:16:06.679Z,94420.53
2023-01-10T08:18:52.639Z,94433.97
2023-01-10T08:21:38.327Z,94440.75
2023-01-10T08:24:23.801Z,94444.88
2023-01-10T08:27:09.755Z,94443.75
2023-01-10T08:29:55.698Z,94437.75
2023-01-10T08:32:41.333Z,94446.75
2023-01-10T08:35:27.165Z,94448.03
2023-01-10T08:38:13.226Z,94455.81
2023-01-10T08:40:59.246Z,94463.72
2023-01-10T08:43:44.856Z,94461.50
2023-01-10T08:46:30.619Z,94458.66
2023-01-10T08:49:16.625Z,94460.72
2023-01-10T08:52:02.691Z,94469.25
2023-01-10T08:54:48.471Z,94465.13
2023-01-10T08:57:34.625Z,94462.63
2023-01-10T09:00:24.096Z,94453.91
2023-01-10T09:03:22.085Z,94454.84
2023-01-10T09:06:08.698Z,94450.91
2023-01-10T09:08:54.174Z,94448.34
2023-01-10T09:11:41.877Z,94443.91
2023-01-10T09:14:28.093Z,94439.50
2023-01-10T09:17:13.880Z,94440.41
2023-01-10T09:20:00.168Z,94443.28
2023-01-10T09:22:46.096Z,94444.53
2023-01-10T09:25:31.630Z,94446.44
2023-01-10T09:28:18.306Z,94438.38
2023-01-10T09:31:04.610Z,94435.19
2023-01-10T09:33:50.434Z,94416.03
2023-01-10T09:36:36.248Z,94409.22
2023-01-10T09:39:22.044Z,94425.38
2023-01-10T09:42:29.135Z,94447.38
2023-01-10T09:45:22.175Z,94444.69
2023-01-10T09:48:25.047Z,94455.44
2023-01-10T09:51:39.718Z,94457.69
2023-01-10T09:54:28.894Z,94463.06
2023-01-10T09:57:18.863Z,94460.53
2023-01-10T10:00:18.381Z,94463.41
2023-01-10T10:03:22.065Z,94461.03
2023-01-10T10:06:12.760Z,94460.25
2023-01-10T10:08:58.649Z,94454.84
2023-01-10T10:12:16.550Z,94454.84
2023-01-10T10:15:32.762Z,94453.75
2023-01-10T10:18:28.516Z,94451.06
2023-01-10T10:21:38.934Z,94444.38
2023-01-10T10:24:52.588Z,94439.94
2023-01-10T10:27:59.484Z,94426.31
2023-01-10T10:30:51.445Z,94423.47
2023-01-10T10:34:03.606Z,94420.25
2023-01-10T10:37:15.867Z,94415.97
2023-01-10T10:40:30.425Z,94418.63
2023-01-10T10:43:21.765Z,94416.69
2023-01-10T10:46:09.994Z,94425.38
2023-01-10T10:49:02.120Z,94421.41
2023-01-10T10:51:52.555Z,94413.13
2023-01-10T10:54:38.545Z,94407.13
2023-01-10T10:57:27.321Z,94400.31
2023-01-10T11:00:18.821Z,94400.91
2023-01-10T11:03:11.168Z,94396.47
2023-01-10T11:05:57.606Z,94391.53
2023-01-10T11:08:45.784Z,94384.56
2023-01-10T11:11:39.083Z,94385.63
2023-01-10T11:14:55.344Z,94387.22
2023-01-10T11:17:41.577Z,94376.69
2023-01-10T11:20:27.282Z,94379.34
2023-01-10T11:23:44.074Z,94373.91
2023-01-10T11:26:39.288Z,94374.75
2023-01-10T11:29:39.169Z,94378.19
2023-01-10T11:32:36.215Z,94385.41
2023-01-10T11:35:29.616Z,94383.66
2023-01-10T11:38:22.062Z,94381.59
2023-01-10T11:41:34.666Z,94388.03
2023-01-10T11:44:26.362Z,94395.16
2023-01-10T11:47:14.945Z,94406.03
2023-01-10T11:50:02.473Z,94416.91
2023-01-10T11:52:49.274Z,94418.41
2023-01-10T11:55:37.035Z,94434.94
2023-01-10T11:58:22.962Z,94447.81
2023-01-10T12:01:29.700Z,94453.72
2023-01-10T12:04:17.080Z,94451.19
2023-01-10T12:07:09.541Z,94461.81
2023-01-10T12:09:58.278Z,94473.53
2023-01-10T12:12:57.250Z,94477.13
2023-01-10T12:15:43.402Z,94463.69
2023-01-10T12:18:31.467Z,94477.53
2023-01-10T12:21:22.255Z,94482.22
2023-01-10T12:24:25.301Z,94473.78
2023-01-10T12:27:13.613Z,94492.56
2023-01-10T12:30:01.765Z,94491.25
2023-01-10T12:32:54.535Z,94509.31
2023-01-10T12:35:45.455Z,94509.59
2023-01-10T12:39:11.354Z,94530.50
2023-01-10T12:42:36.897Z,94509.75
2023-01-10T12:45:27.068Z,94514.22
2023-01-10T12:48:17.873Z,94526.56
2023-01-10T12:51:08.292Z,94533.56
2023-01-10T12:53:56.843Z,94535.97
2023-01-10T12:56:43.702Z,94544.75
2023-01-10T12:59:39.534Z,94545.25
2023-01-10T13:02:27.275Z,94536.03
2023-01-10T13:05:25.464Z,94543.19
2023-01-10T13:08:13.771Z,94558.28
2023-01-10T13:11:00.622Z,94540.72
2023-01-10T13:13:52.400Z,94565.44
2023-01-10T13:16:58.846Z,94571.97
2023-01-10T13:20:25.284Z,94559.47
2023-01-10T13:23:30.639Z,94576.34
2023-01-10T13:26:16.649Z,94576.13
2023-01-10T13:29:03.985Z,94603.63
2023-01-10T13:31:51.173Z,94591.31
2023-01-10T13:34:36.886Z,94589.16
2023-01-10T13:37:25.069Z,94575.94
2023-01-10T13:40:24.493Z,94575.94
2023-01-10T13:43:35.177Z,94581.50
2023-01-10T13:46:21.285Z,94577.63
2023-01-10T13:49:10.167Z,94588.84
2023-01-10T13:52:31.717Z,94604.91
2023-01-10T13:55:34.638Z,94603.44
2023-01-10T13:58:43.647Z,94626.34
2023-01-10T14:01:54.461Z,94621.78
2023-01-10T14:04:47.486Z,94621.00
2023-01-10T14:07:55.030Z,94617.22
2023-01-10T14:10:40.770Z,94628.44
2023-01-10T14:13:26.555Z,94632.22
2023-01-10T14:16:34.567Z,94638.28
2023-01-10T14:19:28.671Z,94630.94
2023-01-10T14:22:29.513Z,94629.34
2023-01-10T14:25:21.347Z,94633.53
2023-01-10T14:28:28.927Z,94640.97
2023-01-10T14:31:23.729Z,94647.13
2023-01-10T14:34:11.889Z,94645.16
2023-01-10T14:37:16.979Z,94646.81
2023-01-10T14:40:15.823Z,94656.16
2023-01-10T14:43:03.728Z,94657.63
2023-01-10T14:46:03.926Z,94662.72
2023-01-10T14:48:53.769Z,94658.44
2023-01-10T14:51:39.819Z,94656.38
2023-01-10T14:54:29.502Z,94660.16
2023-01-10T14:57:21.928Z,94669.28
2023-01-10T15:00:12.011Z,94666.09
2023-01-10T15:02:59.729Z,94674.13
2023-01-10T15:05:48.196Z,94667.97
2023-01-10T15:08:34.162Z,94678.50
2023-01-10T15:11:21.785Z,94681.66
2023-01-10T15:14:10.995Z,94672.63
2023-01-10T15:17:02.168Z,94688.22
2023-01-10T15:19:53.773Z,94693.09
2023-01-10T15:22:39.748Z,94687.72
2023-01-10T15:25:29.992Z,94689.41
2023-01-10T15:28:17.778Z,94690.47
2023-01-10T15:31:05.455Z,94687.91
2023-01-10T15:33:56.702Z,94695.44
2023-01-10T15:37:06.578Z,94699.00
2023-01-10T15:39:54.119Z,94706.25
2023-01-10T15:42:40.220Z,94710.63
2023-01-10T15:45:47.215Z,94708.72
2023-01-10T15:48:40.156Z,94714.38
2023-01-10T15:51:38.824Z,94720.25
2023-01-10T15:54:24.493Z,94715.69
2023-01-10T15:57:41.138Z,94704.75
2023-01-10T16:00:27.554Z,94706.13
2023-01-10T16:03:27.698Z,94712.28
2023-01-10T16:06:25.543Z,94728.47
2023-01-10T16:09:20.395Z,94737.06
2023-01-10T16:12:31.161Z,94744.53
2023-01-10T16:15:39.320Z,94754.16
2023-01-10T16:18:25.631Z,94741.84
2023-01-10T16:21:14.328Z,94744.88
2023-01-10T16:24:04.864Z,94753.16
2023-01-10T16:26:51.341Z,94760.09
2023-01-10T16:29:37.992Z,94755.03
2023-01-10T16:32:23.829Z,94762.03
2023-01-10T16:35:09.902Z,94758.56
2023-01-10T16:37:57.666Z,94768.81
2023-01-10T16:40:48.835Z,94764.03
2023-01-10T16:43:34.665Z,94770.97
2023-01-10T16:46:20.360Z,94764.53
2023-01-10T16:49:07.784Z,94770.97
2023-01-10T16:51:54.081Z,94772.56
2023-01-10T16:54:39.690Z,94779.53
2023-01-10T16:57:26.683Z,94776.34
2023-01-10T17:00:16.052Z,94783.06
2023-01-10T17:03:03.992Z,94784.94
2023-01-10T17:05:50.599Z,94803.13
2023-01-10T17:08:36.271Z,94804.19
2023-01-10T17:11:25.283Z,94809.56
2023-01-10T17:14:14.767Z,94800.94
2023-01-10T17:17:03.168Z,94807.41
2023-01-10T17:19:48.924Z,94811.66
2023-01-10T17:22:34.685Z,94811.66
2023-01-10T17:25:20.867Z,94813.84
2023-01-10T17:28:06.331Z,94826.16
2023-01-10T17:30:52.278Z,94821.88
2023-01-10T17:33:38.179Z,94816.81
2023-01-10T17:36:29.072Z,94816.22
2023-01-10T17:39:15.151Z,94817.03
2023-01-10T17:42:00.955Z,94814.81
2023-01-10T17:44:46.635Z,94809.97
2023-01-10T17:47:32.427Z,94805.94
2023-01-10T17:50:18.325Z,94811.00
2023-01-10T17:53:04.646Z,94808.31
2023-01-10T17:55:51.095Z,94813.69
2023-01-10T17:58:37.078Z,94809.41
2023-01-10T18:01:25.729Z,94809.13
2023-01-10T18:04:12.908Z,94811.00
2023-01-10T18:06:58.812Z,94811.28
2023-01-10T18:09:44.541Z,94815.06
2023-01-10T18:12:30.351Z,94813.16
2023-01-10T18:15:16.024Z,94815.06
2023-01-10T18:18:01.678Z,94817.16
2023-01-10T18:20:47.414Z,94818.25
2023-01-10T18:23:33.904Z,94821.22
2023-01-10T18:26:20.849Z,94817.50
2023-01-10T18:29:06.994Z,94820.19
2023-01-10T18:31:53.643Z,94824.75
2023-01-10T18:34:39.704Z,94823.94
2023-01-10T18:37:25.448Z,94827.94
2023-01-10T18:40:12.205Z,94823.38
2023-01-10T18:42:59.085Z,94819.09
2023-01-10T18:46:01.737Z,94825.53
2023-01-10T18:49:00.284Z,94829.25
2023-01-10T18:51:47.037Z,94818.47
2023-01-10T18:54:32.945Z,94829.19
2023-01-10T18:57:19.466Z,94826.00
2023-01-10T19:00:11.075Z,94824.41
2023-01-10T19:02:59.593Z,94824.97
2023-01-10T19:05:45.407Z,94831.91
2023-01-10T19:08:32.696Z,94837.28
2023-01-10T19:11:22.042Z,94833.75
2023-01-10T19:14:40.283Z,94843.06
2023-01-10T19:17:27.860Z,94845.69
2023-01-10T19:20:16.422Z,94834.97
2023-01-10T19:23:09.711Z,94845.59
2023-01-10T19:25:56.699Z,94851.75
2023-01-10T19:28:43.851Z,94851.47
2023-01-10T19:31:29.843Z,94849.88
2023-01-10T19:34:16.623Z,94859.44
2023-01-10T19:37:03.380Z,94864.50
2023-01-10T19:39:49.510Z,94866.38
2023-01-10T19:42:37.455Z,94870.16
2023-01-10T19:45:23.042Z,94872.75
2023-01-10T19:48:08.736Z,94862.03
2023-01-10T19:50:54.834Z,94869.19
2023-01-10T19:53:45.507Z,94856.31
2023-01-10T19:56:37.654Z,94868.91
2023-01-10T19:59:24.035Z,94862.75
2023-01-10T20:02:13.186Z,94868.41
2023-01-10T20:04:59.058Z,94853.91
2023-01-10T20:07:49.243Z,94863.84
2023-01-10T20:10:35.315Z,94857.69
2023-01-10T20:13:21.314Z,94860.88
2023-01-10T20:16:07.428Z,94857.69
2023-01-10T20:18:53.614Z,94860.06
2023-01-10T20:21:40.908Z,94865.63
2023-01-10T20:24:27.240Z,94867.53
2023-01-10T20:27:13.287Z,94869.91
2023-01-10T20:29:59.067Z,94864.88
2023-01-10T20:32:44.861Z,94876.84
2023-01-10T20:35:30.541Z,94874.78
2023-01-10T20:38:16.149Z,94869.72
2023-01-10T20:41:07.978Z,94873.75
2023-01-10T20:43:58.638Z,94873.25
2023-01-10T20:46:44.570Z,94878.56
2023-01-10T20:49:34.644Z,94886.09
2023-01-10T20:52:20.383Z,94886.09
2023-01-10T20:55:06.399Z,94892.00
2023-01-10T20:57:52.578Z,94892.81
2023-01-10T21:00:42.593Z,94892.59
2023-01-10T21:03:29.385Z,94890.41
2023-01-10T21:06:18.541Z,94896.28
2023-01-10T21:09:37.330Z,94904.84
2023-01-10T21:12:31.790Z,94901.59
2023-01-10T21:15:18.799Z,94910.13
2023-01-10T21:18:04.648Z,94915.00
2023-01-10T21:20:54.593Z,94914.25
2023-01-10T21:23:40.853Z,94914.63
2023-01-10T21:26:26.871Z,94916.56
2023-01-10T21:29:19.061Z,94930.84
2023-01-10T21:32:06.232Z,94934.63
2023-01-10T21:34:52.087Z,94922.88
2023-01-10T21:37:37.696Z,94939.50
2023-01-10T21:40:25.250Z,94936.91
2023-01-10T21:43:11.293Z,94934.28
2023-01-10T21:46:00.420Z,94944.22
2023-01-10T21:48:46.539Z,94938.06
2023-01-10T21:51:32.645Z,94936.47
2023-01-10T21:54:18.313Z,94937.25
2023-01-10T21:57:04.076Z,94942.84
2023-01-10T21:59:50.908Z,94952.19
2023-01-10T22:02:36.626Z,94956.75
2023-01-10T22:05:22.374Z,94958.34
2023-01-10T22:08:08.073Z,94960.75
2023-01-10T22:10:53.676Z,94959.94
2023-01-10T22:13:39.484Z,94957.84
2023-01-10T22:16:25.349Z,94962.69
2023-01-10T22:19:12.899Z,94966.97
2023-01-10T22:21:58.542Z,94966.44
2023-01-10T22:24:46.885Z,94961.44
2023-01-10T22:27:32.636Z,94970.28
2023-01-10T22:30:18.473Z,94972.44
2023-01-10T22:33:04.266Z,94969.31
2023-01-10T22:35:49.961Z,94975.25
2023-01-10T22:38:35.698Z,94972.59
2023-01-10T22:41:27.314Z,94966.25
2023-01-10T22:44:19.093Z,94970.84
2023-01-10T22:47:04.998Z,94978.09
2023-01-10T22:49:51.970Z,94976.47
2023-01-10T22:52:37.493Z,94976.28
2023-01-10T22:55:23.194Z,94976.31
2023-01-10T22:58:08.911Z,94974.78
2023-01-10T23:00:54.683Z,94971.34
2023-01-10T23:03:40.420Z,94982.09
2023-01-10T23:06:26.165Z,94980.25
2023-01-10T23:09:12.060Z,94989.69
2023-01-10T23:11:58.017Z,94984.38
2023-01-10T23:14:43.742Z,94987.13
2023-01-10T23:17:29.585Z,94975.38
2023-01-10T23:20:16.792Z,94986.63
2023-01-10T23:23:02.463Z,94983.44
2023-01-10T23:26:01.602Z,94974.41
2023-01-10T23:28:49.844Z,94981.31
2023-01-10T23:31:35.629Z,94981.94
2023-01-10T23:34:21.294Z,94984.63
2023-01-10T23:37:06.783Z,94994.22
2023-01-10T23:39:52.475Z,94992.63
2023-01-10T23:42:38.242Z,94990.25
2023-01-10T23:45:34.287Z,94988.66
2023-01-10T23:48:28.288Z,94995.31
2023-01-10T23:51:24.922Z,95000.13
2023-01-10T23:54:17.408Z,95003.88
2023-01-10T23:57:03.551Z,95002.28
